TWG43 EDDW-EDWL

Flight info

Callsign TWG43
Flight time 0h 27m
Altitude 2500
Route DCT
Aircraft C208/L-DFGRVY/S

Departure

Time 2026-05-04 18:52
Airport Bremen Airport (EDDW)

Arrival

Time 2026-05-04 19:20
Airport Langeoog Airport (EDWL)
Time Latitude Longitude Altitude Speed Heading
2026-05-04 18:38 53.05121 8.78311 21 ft 0 kts 48°
2026-05-04 18:47 53.05131 8.78330 21 ft 6 kts 50°
2026-05-04 18:47 53.05136 8.78419 21 ft 13 kts 127°
2026-05-04 18:47 53.05068 8.78519 21 ft 12 kts 136°
2026-05-04 18:47 53.05015 8.78602 21 ft 9 kts 139°
2026-05-04 18:48 53.04949 8.78654 21 ft 14 kts 180°
2026-05-04 18:48 53.04856 8.78661 20 ft 12 kts 177°
2026-05-04 18:48 53.04793 8.78665 18 ft 4 kts 178°
2026-05-04 18:48 53.04789 8.78665 18 ft 0 kts 177°
2026-05-04 18:49 53.04788 8.78665 18 ft 2 kts 177°
2026-05-04 18:49 53.04739 8.78670 18 ft 12 kts 176°
2026-05-04 18:50 53.04689 8.78703 21 ft 3 kts 120°
2026-05-04 18:50 53.04686 8.78732 24 ft 0 kts 86°
2026-05-04 18:50 53.04689 8.78830 21 ft 26 kts 90°
2026-05-04 18:51 53.04701 8.79395 21 ft 71 kts 87°
2026-05-04 18:51 53.04710 8.80344 144 ft 85 kts 85°
2026-05-04 18:51 53.04709 8.81329 355 ft 86 kts 82°
2026-05-04 18:51 53.04760 8.82360 517 ft 96 kts 75°
2026-05-04 18:52 53.05201 8.83161 569 ft 105 kts
2026-05-04 18:52 53.05879 8.82612 596 ft 121 kts 320°
2026-05-04 18:52 53.06490 8.81571 609 ft 129 kts 316°
2026-05-04 18:52 53.07095 8.80529 772 ft 122 kts 318°
2026-05-04 18:53 53.07694 8.79523 875 ft 123 kts 314°
2026-05-04 18:53 53.08131 8.78261 975 ft 127 kts 298°
2026-05-04 18:53 53.08603 8.77054 1098 ft 124 kts 316°
2026-05-04 18:53 53.09221 8.76057 1223 ft 124 kts 318°
2026-05-04 18:54 53.09827 8.75018 1356 ft 126 kts 317°
2026-05-04 18:54 53.10448 8.73959 1491 ft 129 kts 317°
2026-05-04 18:54 53.11085 8.72875 1623 ft 133 kts 314°
2026-05-04 18:54 53.11614 8.71596 1755 ft 135 kts 303°
2026-05-04 18:55 53.12126 8.70272 1883 ft 136 kts 304°
2026-05-04 18:55 53.13171 8.67616 2138 ft 137 kts 304°
2026-05-04 18:55 53.13696 8.66290 2263 ft 138 kts 304°
2026-05-04 18:56 53.14235 8.64965 2396 ft 138 kts 304°
2026-05-04 18:56 53.14781 8.63645 2509 ft 140 kts 304°
2026-05-04 18:56 53.15357 8.62277 2515 ft 148 kts 304°
2026-05-04 18:56 53.15958 8.60859 2522 ft 152 kts 304°
2026-05-04 18:57 53.16577 8.59405 2523 ft 155 kts 304°
2026-05-04 18:57 53.17207 8.57921 2524 ft 157 kts 304°
2026-05-04 18:57 53.17833 8.56447 2523 ft 158 kts 304°
2026-05-04 18:57 53.18480 8.54916 2522 ft 159 kts 304°
2026-05-04 18:58 53.19111 8.53423 2519 ft 160 kts 304°
2026-05-04 18:58 53.19749 8.51906 2518 ft 160 kts 304°
2026-05-04 18:58 53.20388 8.50388 2519 ft 160 kts 304°
2026-05-04 18:58 53.20929 8.48784 2515 ft 159 kts 287°
2026-05-04 18:59 53.21225 8.47006 2515 ft 159 kts 284°
2026-05-04 18:59 53.21516 8.45221 2515 ft 159 kts 284°
2026-05-04 18:59 53.21807 8.43435 2510 ft 159 kts 284°
2026-05-04 18:59 53.22098 8.41651 2510 ft 159 kts 284°
2026-05-04 19:00 53.22389 8.39866 2515 ft 159 kts 284°
2026-05-04 19:00 53.22682 8.38079 2515 ft 159 kts 284°
2026-05-04 19:00 53.22975 8.36300 2515 ft 159 kts 284°
2026-05-04 19:00 53.23267 8.34518 2515 ft 159 kts 284°
2026-05-04 19:01 53.23559 8.32733 2515 ft 159 kts 284°
2026-05-04 19:01 53.23845 8.30970 2514 ft 159 kts 284°
2026-05-04 19:01 53.24134 8.29185 2514 ft 159 kts 284°
2026-05-04 19:01 53.24423 8.27399 2514 ft 159 kts 284°
2026-05-04 19:02 53.24712 8.25611 2514 ft 159 kts 284°
2026-05-04 19:02 53.25000 8.23825 2514 ft 159 kts 284°
2026-05-04 19:02 53.25288 8.22044 2515 ft 159 kts 284°
2026-05-04 19:02 53.25576 8.20250 2518 ft 159 kts 285°
2026-05-04 19:03 53.25908 8.18497 2514 ft 159 kts 297°
2026-05-04 19:03 53.26655 8.17165 2514 ft 159 kts 324°
2026-05-04 19:03 53.27600 8.16217 2516 ft 159 kts 331°
2026-05-04 19:03 53.28586 8.15335 2407 ft 165 kts 331°
2026-05-04 19:04 53.29617 8.14411 2227 ft 170 kts 332°
2026-05-04 19:04 53.30660 8.13468 2106 ft 170 kts 332°
2026-05-04 19:04 53.31697 8.12525 1983 ft 170 kts 333°
2026-05-04 19:04 53.32767 8.11707 1856 ft 169 kts 335°
2026-05-04 19:05 53.33820 8.10845 1729 ft 168 kts 334°
2026-05-04 19:05 53.34866 8.09976 1600 ft 167 kts 334°
2026-05-04 19:05 53.35902 8.09112 1519 ft 164 kts 334°
2026-05-04 19:05 53.36911 8.08270 1510 ft 160 kts 334°
2026-05-04 19:06 53.37892 8.07441 1507 ft 157 kts 334°
2026-05-04 19:06 53.38864 8.06616 1516 ft 157 kts 335°
2026-05-04 19:06 53.39832 8.05795 1513 ft 155 kts 334°
2026-05-04 19:06 53.40794 8.04973 1515 ft 154 kts 334°
2026-05-04 19:07 53.41749 8.04161 1508 ft 154 kts 334°
2026-05-04 19:07 53.42697 8.03354 1511 ft 152 kts 334°
2026-05-04 19:07 53.43645 8.02557 1511 ft 152 kts 334°
2026-05-04 19:07 53.44574 8.01770 1527 ft 152 kts 334°
2026-05-04 19:08 53.45542 8.01061 1521 ft 151 kts 340°
2026-05-04 19:08 53.46518 8.00418 1520 ft 150 kts 339°
2026-05-04 19:08 53.47493 7.99769 1533 ft 151 kts 339°
2026-05-04 19:08 53.48468 7.99138 1532 ft 150 kts 339°
2026-05-04 19:09 53.49448 7.98535 1528 ft 151 kts 339°
2026-05-04 19:09 53.50437 7.97933 1531 ft 152 kts 340°
2026-05-04 19:09 53.51438 7.97312 1534 ft 154 kts 340°
2026-05-04 19:09 53.52433 7.96679 1531 ft 152 kts 339°
2026-05-04 19:10 53.53413 7.96049 1532 ft 150 kts 339°
2026-05-04 19:10 53.54379 7.95451 1539 ft 150 kts 339°
2026-05-04 19:10 53.55365 7.94843 1536 ft 152 kts 340°
2026-05-04 19:10 53.56352 7.94225 1535 ft 151 kts 340°
2026-05-04 19:11 53.57291 7.93451 1538 ft 151 kts 325°
2026-05-04 19:11 53.58107 7.92322 1537 ft 153 kts 319°
2026-05-04 19:11 53.58908 7.91138 1533 ft 154 kts 320°
2026-05-04 19:11 53.59715 7.89940 1539 ft 155 kts 319°
2026-05-04 19:12 53.60519 7.88734 1535 ft 155 kts 319°
2026-05-04 19:12 53.62128 7.86314 1545 ft 156 kts 319°
2026-05-04 19:12 53.62938 7.85101 1546 ft 155 kts 320°
2026-05-04 19:13 53.63628 7.83724 1534 ft 156 kts 299°
2026-05-04 19:13 53.64084 7.82063 1533 ft 155 kts 297°
2026-05-04 19:13 53.64555 7.80446 1533 ft 153 kts 302°
2026-05-04 19:13 53.65077 7.78873 1539 ft 154 kts 301°
2026-05-04 19:14 53.65593 7.77290 1533 ft 153 kts 302°
2026-05-04 19:14 53.66090 7.75718 1537 ft 152 kts 301°
2026-05-04 19:14 53.66603 7.74155 1532 ft 153 kts 301°
2026-05-04 19:14 53.67135 7.72588 1542 ft 155 kts 301°
2026-05-04 19:15 53.67668 7.71008 1541 ft 155 kts 302°
2026-05-04 19:15 53.67976 7.70061 1543 ft 154 kts 301°
2026-05-04 19:15 53.68660 7.67937 1542 ft 154 kts 301°
2026-05-04 19:15 53.69141 7.66357 1544 ft 154 kts 298°
2026-05-04 19:16 53.69606 7.64729 1542 ft 154 kts 299°
2026-05-04 19:16 53.69921 7.63624 1539 ft 155 kts 298°
2026-05-04 19:16 53.70386 7.61997 1544 ft 153 kts 298°
2026-05-04 19:16 53.70848 7.60369 1543 ft 154 kts 298°
2026-05-04 19:17 53.71313 7.58765 1532 ft 154 kts 298°
2026-05-04 19:17 53.71845 7.57210 1466 ft 152 kts 308°
2026-05-04 19:17 53.72539 7.55840 1228 ft 157 kts 314°
2026-05-04 19:17 53.73280 7.54533 847 ft 146 kts 318°
2026-05-04 19:18 53.73927 7.53404 725 ft 125 kts 316°
2026-05-04 19:18 53.74379 7.52281 641 ft 112 kts 285°
2026-05-04 19:18 53.74161 7.51099 549 ft 108 kts 232°
2026-05-04 19:18 53.73720 7.50139 497 ft 95 kts 234°
2026-05-04 19:19 53.73368 7.49254 423 ft 84 kts 261°
2026-05-04 19:19 53.73553 7.48549 303 ft 69 kts 349°
2026-05-04 19:19 53.73914 7.48964 141 ft 66 kts 53°
2026-05-04 19:19 53.74160 7.49575 13 ft 56 kts 49°
2026-05-04 19:20 53.74327 7.49969 10 ft 25 kts 55°
2026-05-04 19:20 53.74397 7.50144 14 ft 8 kts 77°
2026-05-04 19:20 53.74393 7.50131 13 ft 12 kts 225°
2026-05-04 19:20 53.74328 7.49970 9 ft 17 kts 236°
2026-05-04 19:21 53.74270 7.49835 8 ft 13 kts 234°
2026-05-04 19:21 53.74262 7.49741 11 ft 8 kts 320°
2026-05-04 19:21 53.74245 7.49640 12 ft 12 kts 236°
2026-05-04 19:21 53.74225 7.49531 13 ft 11 kts 275°
2026-05-04 19:22 53.74234 7.49382 13 ft 14 kts 276°
2026-05-04 19:22 53.74241 7.49254 10 ft 7 kts 276°
2026-05-04 19:22 53.74248 7.49172 14 ft 8 kts 307°
2026-05-04 19:22 53.74280 7.49149 14 ft 4 kts 231°
2026-05-04 19:23 53.74269 7.49143 13 ft 0 kts 151°
2026-05-04 19:23 53.74269 7.49144 13 ft 0 kts 151°
2026-05-04 19:23 53.74269 7.49143 13 ft 0 kts 151°